sensor_id;sensor_type;location;lat;lon;timestamp;P1;durP1;ratioP1;P2;durP2;ratioP2
12373;SDS011;6251;51.762;8.660;2022-07-17T01:03:29;4.43;;;3.10;;
12373;SDS011;6251;51.762;8.660;2022-07-17T01:13:30;3.83;;;3.17;;
12373;SDS011;6251;51.762;8.660;2022-07-17T02:55:05;2.47;;;2.10;;
12373;SDS011;6251;51.762;8.660;2022-07-17T04:16:19;3.12;;;1.98;;
12373;SDS011;6251;51.762;8.660;2022-07-17T04:26:19;2.65;;;2.45;;
12373;SDS011;6251;51.762;8.660;2022-07-17T04:36:20;4.57;;;2.10;;
12373;SDS011;6251;51.762;8.660;2022-07-17T04:46:21;2.65;;;2.10;;
12373;SDS011;6251;51.762;8.660;2022-07-17T04:56:21;2.95;;;2.70;;
12373;SDS011;6251;51.762;8.660;2022-07-17T05:06:22;2.40;;;2.20;;
12373;SDS011;6251;51.762;8.660;2022-07-17T05:16:22;3.17;;;2.47;;
12373;SDS011;6251;51.762;8.660;2022-07-17T05:26:23;2.70;;;2.50;;
12373;SDS011;6251;51.762;8.660;2022-07-17T05:36:24;3.70;;;2.55;;
12373;SDS011;6251;51.762;8.660;2022-07-17T05:46:25;3.55;;;2.70;;
12373;SDS011;6251;51.762;8.660;2022-07-17T05:56:26;4.35;;;2.40;;
12373;SDS011;6251;51.762;8.660;2022-07-17T06:06:26;3.78;;;2.35;;
12373;SDS011;6251;51.762;8.660;2022-07-17T06:16:27;3.40;;;2.28;;
12373;SDS011;6251;51.762;8.660;2022-07-17T06:26:28;2.45;;;2.33;;
12373;SDS011;6251;51.762;8.660;2022-07-17T06:36:28;1.90;;;1.80;;
12373;SDS011;6251;51.762;8.660;2022-07-17T06:46:29;3.40;;;1.73;;
12373;SDS011;6251;51.762;8.660;2022-07-17T06:56:30;1.52;;;1.42;;
12373;SDS011;6251;51.762;8.660;2022-07-17T07:06:31;1.52;;;1.35;;
12373;SDS011;6251;51.762;8.660;2022-07-17T07:16:32;2.55;;;1.62;;
12373;SDS011;6251;51.762;8.660;2022-07-17T07:26:34;3.33;;;1.33;;
12373;SDS011;6251;51.762;8.660;2022-07-17T07:36:34;1.62;;;1.15;;
12373;SDS011;6251;51.762;8.660;2022-07-17T07:46:35;4.85;;;1.30;;
12373;SDS011;6251;51.762;8.660;2022-07-17T07:56:35;1.60;;;1.47;;
12373;SDS011;6251;51.762;8.660;2022-07-17T08:06:36;1.40;;;1.30;;
12373;SDS011;6251;51.762;8.660;2022-07-17T08:16:38;1.80;;;1.10;;
12373;SDS011;6251;51.762;8.660;2022-07-17T08:26:39;2.73;;;1.10;;
12373;SDS011;6251;51.762;8.660;2022-07-17T08:36:40;2.05;;;1.25;;
12373;SDS011;6251;51.762;8.660;2022-07-17T08:46:41;1.25;;;0.98;;
12373;SDS011;6251;51.762;8.660;2022-07-17T08:56:41;1.77;;;1.30;;
12373;SDS011;6251;51.762;8.660;2022-07-17T09:06:42;3.28;;;1.27;;
12373;SDS011;6251;51.762;8.660;2022-07-17T09:27:02;1.05;;;1.02;;
12373;SDS011;6251;51.762;8.660;2022-07-17T09:37:03;1.30;;;0.95;;
12373;SDS011;6251;51.762;8.660;2022-07-17T09:47:03;1.70;;;1.17;;
12373;SDS011;6251;51.762;8.660;2022-07-17T09:57:04;3.77;;;1.10;;
12373;SDS011;6251;51.762;8.660;2022-07-17T10:07:06;2.60;;;1.30;;
12373;SDS011;6251;51.762;8.660;2022-07-17T10:17:09;1.12;;;1.00;;
12373;SDS011;6251;51.762;8.660;2022-07-17T10:27:17;1.70;;;1.12;;
12373;SDS011;6251;51.762;8.660;2022-07-17T10:37:23;1.17;;;0.90;;
12373;SDS011;6251;51.762;8.660;2022-07-17T10:47:24;1.15;;;0.90;;
12373;SDS011;6251;51.762;8.660;2022-07-17T10:57:27;1.62;;;1.20;;
12373;SDS011;6251;51.762;8.660;2022-07-17T11:07:28;1.67;;;1.15;;
12373;SDS011;6251;51.762;8.660;2022-07-17T11:17:29;1.50;;;0.93;;
12373;SDS011;6251;51.762;8.660;2022-07-17T11:27:30;1.73;;;1.30;;
12373;SDS011;6251;51.762;8.660;2022-07-17T11:37:31;2.10;;;1.05;;
12373;SDS011;6251;51.762;8.660;2022-07-17T11:47:32;1.20;;;1.10;;
12373;SDS011;6251;51.762;8.660;2022-07-17T11:57:40;1.90;;;1.00;;
12373;SDS011;6251;51.762;8.660;2022-07-17T12:07:44;0.93;;;0.85;;
12373;SDS011;6251;51.762;8.660;2022-07-17T12:17:46;2.28;;;1.10;;
12373;SDS011;6251;51.762;8.660;2022-07-17T12:27:47;1.33;;;1.23;;
12373;SDS011;6251;51.762;8.660;2022-07-17T12:37:48;2.37;;;1.08;;
12373;SDS011;6251;51.762;8.660;2022-07-17T12:47:48;1.13;;;1.03;;
12373;SDS011;6251;51.762;8.660;2022-07-17T12:57:49;2.67;;;0.95;;
12373;SDS011;6251;51.762;8.660;2022-07-17T13:07:50;2.50;;;1.15;;
12373;SDS011;6251;51.762;8.660;2022-07-17T13:17:50;1.15;;;1.00;;
12373;SDS011;6251;51.762;8.660;2022-07-17T13:27:51;1.23;;;1.10;;
12373;SDS011;6251;51.762;8.660;2022-07-17T13:37:52;1.17;;;0.93;;
12373;SDS011;6251;51.762;8.660;2022-07-17T13:47:52;1.23;;;1.12;;
12373;SDS011;6251;51.762;8.660;2022-07-17T13:57:54;1.45;;;1.08;;
12373;SDS011;6251;51.762;8.660;2022-07-17T14:07:55;0.65;;;0.65;;
12373;SDS011;6251;51.762;8.660;2022-07-17T14:17:55;1.65;;;0.73;;
12373;SDS011;6251;51.762;8.660;2022-07-17T14:27:56;1.05;;;0.95;;
12373;SDS011;6251;51.762;8.660;2022-07-17T14:37:57;2.92;;;1.15;;
12373;SDS011;6251;51.762;8.660;2022-07-17T14:47:58;2.00;;;0.90;;
12373;SDS011;6251;51.762;8.660;2022-07-17T14:57:59;2.00;;;1.10;;
12373;SDS011;6251;51.762;8.660;2022-07-17T15:08:00;1.37;;;1.00;;
12373;SDS011;6251;51.762;8.660;2022-07-17T15:18:00;1.35;;;0.80;;
12373;SDS011;6251;51.762;8.660;2022-07-17T15:28:01;1.30;;;0.90;;
12373;SDS011;6251;51.762;8.660;2022-07-17T15:38:02;0.93;;;0.93;;
12373;SDS011;6251;51.762;8.660;2022-07-17T15:48:02;0.90;;;0.90;;
12373;SDS011;6251;51.762;8.660;2022-07-17T15:58:03;0.90;;;0.90;;
12373;SDS011;6251;51.762;8.660;2022-07-17T16:08:04;1.00;;;0.90;;
12373;SDS011;6251;51.762;8.660;2022-07-17T16:18:04;0.90;;;0.90;;
12373;SDS011;6251;51.762;8.660;2022-07-17T16:28:05;1.48;;;1.37;;
12373;SDS011;6251;51.762;8.660;2022-07-17T16:38:06;1.60;;;1.20;;
12373;SDS011;6251;51.762;8.660;2022-07-17T16:48:07;1.05;;;1.00;;
12373;SDS011;6251;51.762;8.660;2022-07-17T16:58:08;1.15;;;1.00;;
12373;SDS011;6251;51.762;8.660;2022-07-17T17:08:08;1.63;;;1.30;;
12373;SDS011;6251;51.762;8.660;2022-07-17T17:18:10;1.08;;;1.00;;
12373;SDS011;6251;51.762;8.660;2022-07-17T17:28:11;1.40;;;0.93;;
